createdAt,value
2018-09-27T00:01:12.521Z,4.47
2018-09-27T00:03:41.346Z,5.28
2018-09-27T00:06:09.973Z,6.32
2018-09-27T00:08:38.458Z,5.72
2018-09-27T00:11:06.994Z,4.62
2018-09-27T00:13:35.498Z,3.12
2018-09-27T00:16:05.134Z,3.35
2018-09-27T00:18:33.629Z,6.15
2018-09-27T00:21:02.682Z,6.08
2018-09-27T00:23:31.161Z,6.83
2018-09-27T00:25:59.654Z,3.72
2018-09-27T00:28:28.470Z,2.47
2018-09-27T00:30:56.966Z,2.98
2018-09-27T00:33:25.458Z,2.98
2018-09-27T00:35:53.954Z,3.58
2018-09-27T00:38:22.598Z,3.58
2018-09-27T00:40:51.106Z,7.65
2018-09-27T00:43:19.902Z,4.70
2018-09-27T00:45:48.490Z,2.55
2018-09-27T00:48:17.504Z,2.92
2018-09-27T00:50:46.937Z,3.87
2018-09-27T00:53:15.397Z,6.08
2018-09-27T00:55:43.897Z,4.33
2018-09-27T00:58:12.537Z,5.80
2018-09-27T01:00:41.000Z,4.58
2018-09-27T01:03:09.764Z,3.84
2018-09-27T01:05:38.736Z,5.10
2018-09-27T01:08:07.309Z,4.92
2018-09-27T01:10:35.825Z,4.85
2018-09-27T01:13:05.701Z,4.80
2018-09-27T01:15:34.185Z,4.67
2018-09-27T01:18:02.673Z,3.45
2018-09-27T01:20:31.177Z,3.55
2018-09-27T01:22:59.671Z,3.95
2018-09-27T01:25:28.153Z,3.45
2018-09-27T01:27:56.633Z,3.67
2018-09-27T01:30:25.441Z,4.53
2018-09-27T01:32:54.009Z,4.22
2018-09-27T01:35:22.520Z,5.10
2018-09-27T01:37:51.045Z,4.15
2018-09-27T01:40:19.689Z,4.65
2018-09-27T01:42:48.425Z,5.45
2018-09-27T01:45:16.925Z,4.53
2018-09-27T01:47:45.813Z,6.35
2018-09-27T01:50:14.569Z,5.12
2018-09-27T01:52:43.049Z,5.53
2018-09-27T01:55:11.556Z,5.97
2018-09-27T01:57:40.045Z,5.42
2018-09-27T02:00:08.874Z,5.67
2018-09-27T02:02:37.344Z,6.92
2018-09-27T02:05:05.841Z,7.03
2018-09-27T02:07:34.317Z,6.28
2018-09-27T02:10:02.821Z,7.83
2018-09-27T02:12:31.648Z,10.35
2018-09-27T02:15:00.121Z,7.85
2018-09-27T02:17:28.813Z,9.18
2018-09-27T02:19:57.949Z,10.88
2018-09-27T02:22:26.408Z,9.40
2018-09-27T02:24:54.892Z,8.50
2018-09-27T02:27:23.686Z,8.95
2018-09-27T02:29:52.156Z,10.58
2018-09-27T02:32:20.644Z,8.43
2018-09-27T02:34:49.125Z,8.60
2018-09-27T02:37:17.653Z,6.83
2018-09-27T02:39:46.185Z,7.45
2018-09-27T02:42:14.841Z,10.03
2018-09-27T02:44:43.300Z,8.93
2018-09-27T02:47:11.857Z,12.05
2018-09-27T02:49:40.361Z,8.98
2018-09-27T02:52:08.981Z,9.10
2018-09-27T02:54:37.472Z,9.70
2018-09-27T02:57:05.948Z,10.70
2018-09-27T02:59:34.428Z,10.40
2018-09-27T03:02:02.944Z,8.25
2018-09-27T03:04:31.792Z,9.73
2018-09-27T03:07:00.252Z,8.58
2018-09-27T03:09:28.788Z,9.58
2018-09-27T03:11:57.263Z,9.48
2018-09-27T03:14:25.724Z,8.08
2018-09-27T03:16:54.552Z,6.42
2018-09-27T03:19:23.300Z,8.48
2018-09-27T03:21:51.759Z,7.05
2018-09-27T03:24:20.400Z,6.60
2018-09-27T03:26:48.855Z,7.08
2018-09-27T03:29:17.380Z,8.98
2018-09-27T03:31:45.892Z,8.70
2018-09-27T03:34:15.051Z,7.17
2018-09-27T03:36:43.788Z,11.12
2018-09-27T03:39:12.428Z,7.95
2018-09-27T03:41:40.908Z,10.93
2018-09-27T03:44:10.239Z,11.33
2018-09-27T03:46:38.746Z,11.05
2018-09-27T03:49:07.612Z,9.00
2018-09-27T03:51:36.084Z,10.63
2018-09-27T03:54:05.271Z,7.72
2018-09-27T03:56:34.016Z,7.67
2018-09-27T03:59:03.584Z,7.00
2018-09-27T04:01:32.137Z,8.65
2018-09-27T04:04:00.579Z,8.45
2018-09-27T04:06:29.051Z,7.83
2018-09-27T04:08:57.555Z,8.20
2018-09-27T04:11:26.023Z,7.75
2018-09-27T04:13:54.499Z,11.68
2018-09-27T04:16:23.015Z,12.75
2018-09-27T04:18:51.519Z,13.48
2018-09-27T04:21:19.983Z,13.00
2018-09-27T04:23:48.467Z,9.63
2018-09-27T04:26:16.919Z,9.83
2018-09-27T04:28:45.651Z,7.53
2018-09-27T04:31:14.483Z,7.92
2018-09-27T04:33:42.953Z,7.47
2018-09-27T04:36:11.439Z,7.05
2018-09-27T04:38:39.935Z,7.37
2018-09-27T04:41:08.413Z,6.05
2018-09-27T04:43:37.199Z,7.55
2018-09-27T04:46:05.860Z,6.80
2018-09-27T04:48:34.607Z,8.65
2018-09-27T04:51:03.091Z,6.40
2018-09-27T04:53:31.591Z,8.73
2018-09-27T04:56:00.135Z,5.95
2018-09-27T04:58:28.639Z,6.08
2018-09-27T05:00:57.466Z,8.80
2018-09-27T05:03:25.931Z,7.00
2018-09-27T05:05:54.415Z,6.35
2018-09-27T05:08:23.235Z,5.97
2018-09-27T05:10:51.751Z,6.20
2018-09-27T05:13:20.208Z,6.03
2018-09-27T05:15:48.764Z,7.97
2018-09-27T05:18:17.851Z,6.08
2018-09-27T05:20:46.331Z,6.33
2018-09-27T05:23:14.867Z,8.00
2018-09-27T05:25:43.703Z,3.98
2018-09-27T05:28:12.167Z,6.67
2018-09-27T05:30:40.783Z,8.78
2018-09-27T05:33:09.331Z,6.25
2018-09-27T05:35:37.819Z,4.85
2018-09-27T05:38:06.523Z,7.53
2018-09-27T05:40:35.051Z,5.95
2018-09-27T05:43:03.554Z,7.12
2018-09-27T05:45:32.394Z,4.97
2018-09-27T05:48:00.969Z,5.47
2018-09-27T05:50:29.455Z,4.15
2018-09-27T05:52:58.023Z,8.20
2018-09-27T05:55:26.535Z,4.58
2018-09-27T05:57:55.016Z,4.20
2018-09-27T06:00:24.652Z,4.75
2018-09-27T06:02:53.487Z,1.87
2018-09-27T06:05:21.991Z,3.33
2018-09-27T06:07:50.515Z,3.17
2018-09-27T06:10:19.055Z,2.73
2018-09-27T06:12:48.236Z,1.60
2018-09-27T06:15:17.019Z,4.22
2018-09-27T06:17:45.519Z,5.30
2018-09-27T06:20:14.106Z,3.40
2018-09-27T06:22:42.659Z,2.00
2018-09-27T06:25:11.418Z,5.60
2018-09-27T06:27:40.281Z,5.75
2018-09-27T06:30:08.490Z,4.78
2018-09-27T06:32:36.994Z,2.50
2018-09-27T06:35:05.949Z,1.50
2018-09-27T06:37:34.478Z,1.00
2018-09-27T06:40:03.027Z,3.42
2018-09-27T06:42:31.619Z,4.28
2018-09-27T06:45:00.203Z,1.80
2018-09-27T06:47:28.931Z,2.80
2018-09-27T06:49:57.486Z,4.12
2018-09-27T06:52:25.994Z,3.52
2018-09-27T06:54:54.513Z,3.92
2018-09-27T06:57:23.514Z,4.67
2018-09-27T06:59:53.722Z,3.45
2018-09-27T07:02:22.238Z,5.12
2018-09-27T07:04:51.138Z,3.77
2018-09-27T07:07:19.945Z,3.92
2018-09-27T07:09:48.397Z,4.60
2018-09-27T07:12:17.046Z,3.10
2018-09-27T07:14:45.754Z,4.42
2018-09-27T07:17:14.241Z,3.45
2018-09-27T07:19:42.754Z,2.37
2018-09-27T07:22:11.266Z,4.30
2018-09-27T07:24:39.762Z,3.08
2018-09-27T07:27:08.223Z,2.60
2018-09-27T07:29:36.705Z,3.45
2018-09-27T07:32:05.510Z,1.57
2018-09-27T07:34:34.258Z,2.75
2018-09-27T07:37:02.788Z,2.83
2018-09-27T07:39:31.258Z,3.60
2018-09-27T07:42:01.654Z,1.90
2018-09-27T07:44:30.795Z,2.85
2018-09-27T07:46:59.269Z,3.50
2018-09-27T07:49:27.811Z,2.52
2018-09-27T07:51:56.430Z,3.08
2018-09-27T07:54:25.293Z,2.52
2018-09-27T07:56:53.770Z,1.92
2018-09-27T07:59:22.261Z,1.55
2018-09-27T08:01:50.742Z,2.45
2018-09-27T08:04:19.312Z,2.55
2018-09-27T08:06:48.009Z,2.98
2018-09-27T08:09:16.805Z,2.10
2018-09-27T08:11:45.330Z,2.50
2018-09-27T08:14:14.154Z,2.05
2018-09-27T08:16:42.699Z,4.12
2018-09-27T08:19:11.198Z,2.47
2018-09-27T08:21:39.670Z,2.52
2018-09-27T08:24:08.172Z,2.37
2018-09-27T08:26:36.781Z,2.98
2018-09-27T08:29:05.577Z,2.98
2018-09-27T08:31:34.309Z,3.85
2018-09-27T08:34:02.869Z,5.17
2018-09-27T08:36:31.382Z,5.05
2018-09-27T08:39:00.175Z,3.37
2018-09-27T08:41:28.970Z,2.60
2018-09-27T08:43:58.197Z,2.62
2018-09-27T08:46:26.705Z,3.45
2018-09-27T08:48:55.205Z,6.35
2018-09-27T08:51:23.731Z,6.50
2018-09-27T08:53:52.325Z,3.50
2018-09-27T08:56:21.003Z,2.42
2018-09-27T08:58:49.485Z,1.85
2018-09-27T09:01:17.957Z,3.33
2018-09-27T09:03:46.591Z,1.80
2018-09-27T09:06:14.989Z,3.37
2018-09-27T09:08:43.753Z,4.03
2018-09-27T09:11:12.285Z,1.98
2018-09-27T09:13:40.780Z,1.87
2018-09-27T09:16:09.925Z,2.25
2018-09-27T09:18:38.765Z,4.30
2018-09-27T09:21:07.625Z,1.85
2018-09-27T09:23:36.777Z,3.62
2018-09-27T09:26:05.431Z,3.70
2018-09-27T09:28:34.009Z,5.42
2018-09-27T09:31:02.476Z,5.00
2018-09-27T09:33:31.350Z,1.67
2018-09-27T09:36:00.229Z,1.40
2018-09-27T09:38:28.725Z,1.80
2018-09-27T09:40:57.239Z,2.17
2018-09-27T09:43:25.744Z,5.60
2018-09-27T09:45:54.617Z,2.98
2018-09-27T09:48:23.129Z,4.10
2018-09-27T09:50:51.956Z,2.25
2018-09-27T09:53:20.705Z,1.90
2018-09-27T09:55:49.328Z,5.05
2018-09-27T09:58:18.141Z,11.60
2018-09-27T10:00:46.613Z,4.30
2018-09-27T10:03:15.204Z,2.47
2018-09-27T10:05:43.672Z,2.77
2018-09-27T10:08:12.204Z,3.05
2018-09-27T10:10:40.716Z,2.85
2018-09-27T10:13:09.216Z,2.37
2018-09-27T10:15:37.694Z,1.92
2018-09-27T10:18:06.065Z,2.95
2018-09-27T10:20:34.516Z,1.42
2018-09-27T10:23:03.021Z,2.72
2018-09-27T10:25:31.533Z,3.25
2018-09-27T10:28:00.022Z,2.52
2018-09-27T10:30:28.609Z,2.30
2018-09-27T10:32:57.108Z,2.58
2018-09-27T10:35:25.693Z,2.62
2018-09-27T10:37:54.145Z,1.45
2018-09-27T10:40:22.732Z,1.32
2018-09-27T10:42:51.196Z,2.67
2018-09-27T10:45:19.676Z,1.10
2018-09-27T10:47:48.184Z,2.12
2018-09-27T10:50:16.940Z,1.87
2018-09-27T10:52:45.424Z,3.27
2018-09-27T10:55:14.244Z,1.77
2018-09-27T10:57:43.422Z,4.15
2018-09-27T11:00:16.160Z,2.03
2018-09-27T11:02:44.651Z,3.77
2018-09-27T11:05:13.136Z,2.37
2018-09-27T11:07:41.640Z,4.08
2018-09-27T11:10:10.128Z,2.72
2018-09-27T11:12:38.599Z,4.03
2018-09-27T11:15:07.160Z,2.15
2018-09-27T11:17:35.619Z,2.37
2018-09-27T11:20:04.168Z,1.87
2018-09-27T11:22:32.679Z,1.60
2018-09-27T11:25:01.512Z,1.40
2018-09-27T11:27:30.024Z,1.72
2018-09-27T11:30:03.916Z,3.80
2018-09-27T11:32:34.232Z,1.85
2018-09-27T11:35:02.713Z,1.40
2018-09-27T11:37:31.228Z,1.85
2018-09-27T11:40:00.089Z,3.27
2018-09-27T11:42:28.573Z,1.17
2018-09-27T11:44:57.433Z,1.80
2018-09-27T11:47:25.905Z,1.98
2018-09-27T11:49:54.481Z,1.02
2018-09-27T11:52:22.940Z,2.50
2018-09-27T11:54:51.537Z,1.60
2018-09-27T11:57:20.190Z,1.75
2018-09-27T11:59:49.421Z,3.12
2018-09-27T12:02:17.904Z,4.20
2018-09-27T12:04:46.392Z,2.00
2018-09-27T12:07:15.384Z,1.87
2018-09-27T12:09:44.319Z,4.37
2018-09-27T12:12:12.792Z,2.30
2018-09-27T12:14:41.366Z,1.72
2018-09-27T12:17:09.887Z,1.60
2018-09-27T12:19:38.839Z,1.57
2018-09-27T12:22:07.347Z,1.30
2018-09-27T12:24:35.840Z,1.32
2018-09-27T12:27:04.895Z,1.17
2018-09-27T12:29:33.476Z,1.67
2018-09-27T12:32:01.960Z,2.08
2018-09-27T12:34:30.446Z,1.40
2018-09-27T12:36:59.293Z,2.75
2018-09-27T12:39:28.085Z,1.30
2018-09-27T12:41:56.659Z,2.83
2018-09-27T12:44:25.095Z,2.75
2018-09-27T12:46:53.987Z,2.30
2018-09-27T12:49:22.400Z,3.47
2018-09-27T12:51:51.004Z,1.95
2018-09-27T12:54:19.435Z,2.47
2018-09-27T12:56:47.959Z,1.80
2018-09-27T12:59:16.462Z,1.92
2018-09-27T13:01:45.001Z,1.37
2018-09-27T13:04:13.429Z,3.90
2018-09-27T13:06:42.546Z,0.90
2018-09-27T13:09:11.437Z,1.92
2018-09-27T13:11:40.769Z,1.80
2018-09-27T13:14:08.474Z,0.95
2018-09-27T13:16:37.246Z,0.98
2018-09-27T13:19:05.767Z,1.55
2018-09-27T13:21:34.335Z,1.02
2018-09-27T13:24:02.834Z,2.00
2018-09-27T13:26:31.314Z,3.27
2018-09-27T13:28:59.998Z,1.05
2018-09-27T13:31:28.738Z,0.98
2018-09-27T13:33:57.925Z,1.10
2018-09-27T13:36:26.461Z,2.90
2018-09-27T13:38:54.974Z,2.72
2018-09-27T13:41:23.822Z,3.30
2018-09-27T13:43:52.415Z,2.52
2018-09-27T13:46:20.954Z,5.05
2018-09-27T13:48:49.780Z,1.42
2018-09-27T13:51:18.291Z,1.07
2018-09-27T13:53:46.826Z,0.95
2018-09-27T13:56:15.651Z,1.82
2018-09-27T13:58:44.161Z,1.45
2018-09-27T14:01:12.983Z,1.25
2018-09-27T14:03:41.479Z,0.93
2018-09-27T14:06:10.467Z,3.57
2018-09-27T14:08:39.052Z,1.32
2018-09-27T14:11:07.691Z,1.95
2018-09-27T14:13:36.255Z,1.20
2018-09-27T14:16:05.169Z,3.77
2018-09-27T14:18:33.712Z,2.33
2018-09-27T14:21:02.428Z,2.42
2018-09-27T14:23:31.026Z,2.25
2018-09-27T14:25:59.603Z,0.95
2018-09-27T14:28:28.201Z,2.80
2018-09-27T14:30:56.779Z,0.70
2018-09-27T14:33:25.320Z,0.98
2018-09-27T14:35:54.145Z,1.72
2018-09-27T14:38:22.644Z,1.67
2018-09-27T14:40:51.423Z,1.92
2018-09-27T14:43:19.969Z,1.62
2018-09-27T14:45:48.781Z,1.45
2018-09-27T14:48:17.637Z,2.55
2018-09-27T14:50:46.173Z,2.42
2018-09-27T14:53:14.666Z,2.87
2018-09-27T14:55:43.286Z,1.80
2018-09-27T14:58:11.974Z,1.35
2018-09-27T15:00:41.350Z,2.72
2018-09-27T15:03:10.056Z,4.22
2018-09-27T15:05:38.968Z,1.10
2018-09-27T15:08:07.853Z,3.02
2018-09-27T15:10:36.720Z,1.20
2018-09-27T15:13:05.552Z,1.20
2018-09-27T15:15:34.443Z,1.65
2018-09-27T15:18:03.389Z,4.10
2018-09-27T15:20:31.969Z,2.42
2018-09-27T15:23:00.680Z,1.70
2018-09-27T15:25:29.190Z,1.47
2018-09-27T15:27:57.884Z,1.35
2018-09-27T15:30:26.427Z,2.05
2018-09-27T15:32:54.982Z,1.30
2018-09-27T15:35:23.540Z,3.55
2018-09-27T15:37:52.082Z,3.12
2018-09-27T15:40:20.629Z,2.77
2018-09-27T15:42:49.149Z,4.78
2018-09-27T15:45:17.874Z,3.08
2018-09-27T15:47:47.213Z,5.72
2018-09-27T15:50:15.870Z,6.85
2018-09-27T15:52:44.799Z,6.95
2018-09-27T15:55:13.686Z,9.20
2018-09-27T15:57:43.306Z,5.37
2018-09-27T16:00:12.222Z,4.70
2018-09-27T16:02:40.906Z,5.55
2018-09-27T16:05:09.413Z,6.58
2018-09-27T16:07:38.278Z,5.28
2018-09-27T16:10:06.816Z,6.17
2018-09-27T16:12:35.355Z,7.55
2018-09-27T16:15:04.755Z,6.83
2018-09-27T16:17:33.370Z,4.10
2018-09-27T16:20:02.095Z,6.47
2018-09-27T16:22:30.587Z,5.58
2018-09-27T16:24:59.071Z,5.70
2018-09-27T16:27:27.582Z,7.58
2018-09-27T16:29:56.063Z,8.85
2018-09-27T16:32:24.802Z,7.25
2018-09-27T16:34:53.277Z,7.37
2018-09-27T16:40:25.255Z,5.03
2018-09-27T16:42:53.869Z,8.43
2018-09-27T16:45:22.365Z,4.12
2018-09-27T16:47:50.853Z,4.37
2018-09-27T16:50:19.701Z,4.70
2018-09-27T16:52:48.200Z,5.17
2018-09-27T16:55:16.704Z,6.17
2018-09-27T16:57:45.209Z,5.55
2018-09-27T17:00:13.724Z,7.22
2018-09-27T17:02:42.232Z,6.37
2018-09-27T17:05:10.750Z,4.03
2018-09-27T17:07:39.542Z,7.00
2018-09-27T17:10:08.054Z,4.87
2018-09-27T17:12:36.558Z,4.33
2018-09-27T17:15:05.794Z,7.20
2018-09-27T17:17:34.409Z,7.40
2018-09-27T17:20:03.002Z,6.15
2018-09-27T17:22:31.611Z,5.28
2018-09-27T17:25:00.914Z,4.53
2018-09-27T17:27:29.754Z,5.65
2018-09-27T17:29:58.478Z,5.53
2018-09-27T17:32:26.974Z,4.42
2018-09-27T17:34:55.464Z,9.20
2018-09-27T17:38:27.121Z,6.58
2018-09-27T17:40:55.612Z,6.17
2018-09-27T17:43:24.157Z,6.10
2018-09-27T17:45:53.143Z,10.65
2018-09-27T17:48:21.612Z,7.70
2018-09-27T17:50:50.088Z,6.78
2018-09-27T17:53:18.732Z,6.37
2018-09-27T17:55:47.160Z,18.75
2018-09-27T17:58:16.005Z,20.97
2018-09-27T18:00:44.517Z,12.70
2018-09-27T18:03:13.047Z,11.80
2018-09-27T18:05:44.090Z,8.28
2018-09-27T18:08:12.923Z,9.43
2018-09-27T18:10:41.497Z,11.28
2018-09-27T18:13:10.113Z,8.48
2018-09-27T18:15:38.867Z,8.30
2018-09-27T18:18:07.459Z,8.93
2018-09-27T18:20:36.056Z,4.85
2018-09-27T18:23:05.550Z,10.43
2018-09-27T18:25:35.225Z,10.68
2018-09-27T18:28:04.142Z,12.05
2018-09-27T18:30:33.906Z,11.18
2018-09-27T18:33:03.842Z,6.92
2018-09-27T18:35:32.545Z,8.75
2018-09-27T18:38:01.293Z,5.72
2018-09-27T18:40:29.960Z,6.55
2018-09-27T18:42:58.761Z,9.75
2018-09-27T18:45:27.606Z,7.92
2018-09-27T18:47:56.543Z,8.83
2018-09-27T18:50:25.367Z,8.35
2018-09-27T18:52:54.179Z,10.45
2018-09-27T18:55:22.995Z,8.65
2018-09-27T18:57:51.607Z,10.38
2018-09-27T19:00:20.279Z,9.88
2018-09-27T19:02:49.239Z,13.05
2018-09-27T19:05:18.039Z,10.50
2018-09-27T19:07:46.979Z,12.35
2018-09-27T19:10:15.947Z,9.55
2018-09-27T19:12:44.935Z,9.70
2018-09-27T19:15:13.771Z,9.83
2018-09-27T19:17:42.654Z,7.35
2018-09-27T19:20:11.556Z,7.62
2018-09-27T19:22:40.614Z,8.58
2018-09-27T19:25:09.555Z,9.05
2018-09-27T19:27:38.407Z,9.77
2018-09-27T19:30:07.109Z,7.37
2018-09-27T19:32:35.643Z,7.75
2018-09-27T19:35:04.799Z,9.35
2018-09-27T19:37:33.706Z,9.13
2018-09-27T19:40:02.390Z,8.68
2018-09-27T19:42:31.055Z,9.48
2018-09-27T19:44:59.766Z,8.03
2018-09-27T19:47:28.295Z,8.70
2018-09-27T19:49:56.850Z,10.60
2018-09-27T19:52:25.635Z,10.30
2018-09-27T19:54:54.335Z,11.40
2018-09-27T19:57:22.902Z,8.25
2018-09-27T19:59:51.538Z,11.10
2018-09-27T20:02:20.294Z,12.10
2018-09-27T20:04:49.234Z,10.93
2018-09-27T20:07:18.011Z,11.00
2018-09-27T20:09:46.790Z,7.03
2018-09-27T20:12:15.354Z,10.25
2018-09-27T20:14:43.927Z,9.05
2018-09-27T20:17:12.750Z,10.03
2018-09-27T20:19:41.314Z,8.88
2018-09-27T20:22:10.831Z,8.73
2018-09-27T20:24:39.389Z,7.50
2018-09-27T20:27:08.686Z,7.35
2018-09-27T20:29:37.209Z,7.80
2018-09-27T20:32:05.897Z,6.70
2018-09-27T20:34:34.691Z,7.15
2018-09-27T20:37:03.177Z,8.63
2018-09-27T20:39:31.873Z,8.13
2018-09-27T20:42:00.657Z,8.35
2018-09-27T20:44:29.236Z,8.60
2018-09-27T20:46:57.753Z,8.23
2018-09-27T20:49:26.994Z,8.58
2018-09-27T20:51:55.542Z,9.35
2018-09-27T20:54:24.074Z,6.93
2018-09-27T20:56:52.678Z,7.80
2018-09-27T20:59:21.454Z,7.42
2018-09-27T21:01:50.034Z,9.28
2018-09-27T21:04:18.910Z,8.03
2018-09-27T21:06:47.526Z,10.10
2018-09-27T21:09:16.380Z,7.33
2018-09-27T21:11:45.075Z,7.17
2018-09-27T21:14:13.619Z,6.08
2018-09-27T21:16:42.494Z,6.12
2018-09-27T21:19:11.148Z,8.85
2018-09-27T21:21:39.729Z,8.43
2018-09-27T21:24:08.563Z,7.58
2018-09-27T21:26:37.189Z,8.43
2018-09-27T21:29:05.831Z,8.75
2018-09-27T21:31:34.389Z,11.85
2018-09-27T21:34:02.969Z,6.75
2018-09-27T21:36:31.521Z,8.40
2018-09-27T21:39:00.053Z,9.23
2018-09-27T21:41:28.845Z,7.03
2018-09-27T21:43:57.345Z,7.65
2018-09-27T21:46:25.893Z,7.83
2018-09-27T21:48:54.460Z,9.83
2018-09-27T21:51:24.095Z,8.10
2018-09-27T21:53:53.159Z,8.35
2018-09-27T21:56:21.722Z,7.17
2018-09-27T21:58:50.241Z,8.45
2018-09-27T22:01:19.121Z,12.23
2018-09-27T22:03:47.653Z,9.58
2018-09-27T22:06:16.182Z,7.35
2018-09-27T22:08:45.021Z,6.85
2018-09-27T22:11:13.548Z,7.15
2018-09-27T22:13:42.125Z,13.20
2018-09-27T22:16:10.910Z,12.15
2018-09-27T22:18:39.434Z,9.73
2018-09-27T22:21:07.963Z,6.90
2018-09-27T22:23:36.492Z,7.37
2018-09-27T22:26:05.102Z,6.40
2018-09-27T22:28:33.629Z,7.50
2018-09-27T22:31:02.601Z,7.87
2018-09-27T22:33:31.216Z,7.62
2018-09-27T22:35:59.766Z,11.45
2018-09-27T22:38:28.292Z,6.97
2018-09-27T22:40:57.004Z,6.58
2018-09-27T22:43:25.556Z,7.80
2018-09-27T22:45:54.673Z,8.05
2018-09-27T22:48:23.304Z,8.00
2018-09-27T22:50:52.118Z,6.67
2018-09-27T22:53:21.118Z,8.20
2018-09-27T22:55:49.667Z,11.15
2018-09-27T22:58:18.575Z,8.48
2018-09-27T23:00:47.122Z,9.53
2018-09-27T23:03:15.760Z,7.60
2018-09-27T23:05:44.396Z,10.48
2018-09-27T23:08:12.935Z,7.05
2018-09-27T23:10:41.472Z,12.05
2018-09-27T23:13:10.356Z,7.97
2018-09-27T23:15:38.912Z,8.68
2018-09-27T23:18:07.808Z,6.45
2018-09-27T23:20:36.599Z,10.48
2018-09-27T23:23:05.228Z,8.30
2018-09-27T23:25:33.783Z,6.42
2018-09-27T23:28:02.299Z,6.92
2018-09-27T23:30:31.019Z,10.48
2018-09-27T23:32:59.595Z,8.50
2018-09-27T23:35:28.247Z,9.75
2018-09-27T23:37:57.068Z,6.50
2018-09-27T23:40:25.599Z,9.03
2018-09-27T23:42:54.227Z,12.18
2018-09-27T23:45:23.039Z,9.90
2018-09-27T23:47:51.871Z,8.00
2018-09-27T23:50:20.380Z,6.62
2018-09-27T23:52:48.955Z,8.30
2018-09-27T23:55:17.514Z,10.70
2018-09-27T23:57:46.367Z,6.87
